createdAt,value
2023-04-30T00:01:00.360Z,101058.09
2023-04-30T00:03:27.429Z,101063.72
2023-04-30T00:05:54.503Z,101060.34
2023-04-30T00:08:21.475Z,101061.38
2023-04-30T00:10:48.701Z,101059.66
2023-04-30T00:13:15.568Z,101064.47
2023-04-30T00:15:42.719Z,101060.03
2023-04-30T00:18:09.673Z,101057.69
2023-04-30T00:20:36.585Z,101063.31
2023-04-30T00:23:03.691Z,101054.09
2023-04-30T00:25:30.628Z,101058.88
2023-04-30T00:27:57.584Z,101062.16
2023-04-30T00:30:24.455Z,101062.16
2023-04-30T00:32:51.412Z,101062.31
2023-04-30T00:35:18.553Z,101060.81
2023-04-30T00:37:45.922Z,101057.94
2023-04-30T00:40:13.379Z,101055.38
2023-04-30T00:42:40.635Z,101055.53
2023-04-30T00:45:08.585Z,101049.25
2023-04-30T00:47:35.878Z,101048.22
2023-04-30T00:50:02.889Z,101047.53
2023-04-30T00:52:29.906Z,101048.56
2023-04-30T00:54:57.679Z,101046.88
2023-04-30T00:57:25.578Z,101043.47
2023-04-30T00:59:53.016Z,101040.75
2023-04-30T01:02:20.476Z,101037.72
2023-04-30T01:04:47.636Z,101036.72
2023-04-30T01:07:14.573Z,101040.63
2023-04-30T01:09:41.600Z,101042.69
2023-04-30T01:12:20.517Z,101041.16
2023-04-30T01:14:59.302Z,101042.19
2023-04-30T01:18:08.096Z,101048.19
2023-04-30T01:20:39.621Z,101041.03
2023-04-30T01:23:36.749Z,101046.00
2023-04-30T01:26:59.534Z,101036.19
2023-04-30T01:29:28.099Z,101036.19
2023-04-30T01:31:54.955Z,101032.44
2023-04-30T01:34:24.935Z,101038.25
2023-04-30T01:37:29.439Z,101032.13
2023-04-30T01:40:11.481Z,101033.81
2023-04-30T01:43:12.779Z,101029.78
2023-04-30T01:46:16.680Z,101028.72
2023-04-30T01:48:56.457Z,101035.38
2023-04-30T01:51:38.574Z,101035.94
2023-04-30T01:55:00.493Z,101034.22
2023-04-30T01:57:42.349Z,101041.53
2023-04-30T02:00:13.702Z,101038.09
2023-04-30T02:02:41.110Z,101041.50
2023-04-30T02:05:08.549Z,101047.09
2023-04-30T02:07:44.266Z,101040.66
2023-04-30T02:10:14.986Z,101037.94
2023-04-30T02:12:41.884Z,101041.00
2023-04-30T02:15:09.890Z,101037.94
2023-04-30T02:17:37.213Z,101049.81
2023-04-30T02:20:04.932Z,101048.16
2023-04-30T02:22:31.870Z,101050.19
2023-04-30T02:24:59.844Z,101050.72
2023-04-30T02:27:27.607Z,101042.72
2023-04-30T02:29:54.832Z,101043.78
2023-04-30T02:32:22.691Z,101045.81
2023-04-30T02:34:50.027Z,101042.06
2023-04-30T02:37:17.144Z,101050.09
2023-04-30T02:39:44.100Z,101046.00
2023-04-30T02:42:11.467Z,101042.78
2023-04-30T02:44:38.335Z,101041.94
2023-04-30T02:47:05.725Z,101043.81
2023-04-30T02:49:32.615Z,101037.69
2023-04-30T02:51:59.782Z,101042.28
2023-04-30T02:54:26.669Z,101045.88
2023-04-30T02:56:53.812Z,101050.97
2023-04-30T02:59:21.101Z,101058.47
2023-04-30T03:01:48.151Z,101051.16
2023-04-30T03:04:15.054Z,101060.53
2023-04-30T03:06:41.983Z,101065.47
2023-04-30T03:09:09.043Z,101061.56
2023-04-30T03:11:37.894Z,101062.75
2023-04-30T03:14:08.111Z,101063.44
2023-04-30T03:16:35.123Z,101051.75
2023-04-30T03:19:02.024Z,101052.44
2023-04-30T03:21:29.320Z,101055.66
2023-04-30T03:23:56.296Z,101064.53
2023-04-30T03:26:23.201Z,101055.03
2023-04-30T03:28:50.395Z,101054.84
2023-04-30T03:31:17.310Z,101049.44
2023-04-30T03:33:44.363Z,101053.19
2023-04-30T03:36:11.250Z,101049.25
2023-04-30T03:38:38.178Z,101052.47
2023-04-30T03:41:05.803Z,101053.84
2023-04-30T03:43:32.727Z,101050.78
2023-04-30T03:45:59.744Z,101042.66
2023-04-30T03:48:27.476Z,101045.72
2023-04-30T03:50:54.502Z,101043.16
2023-04-30T03:53:21.757Z,101043.84
2023-04-30T03:55:50.242Z,101041.97
2023-04-30T03:58:17.592Z,101044.47
2023-04-30T04:00:46.067Z,101045.69
2023-04-30T04:03:13.205Z,101039.53
2023-04-30T04:05:40.101Z,101047.00
2023-04-30T04:08:08.121Z,101039.69
2023-04-30T04:10:35.692Z,101046.63
2023-04-30T04:13:02.616Z,101044.06
2023-04-30T04:15:29.814Z,101051.03
2023-04-30T04:17:56.868Z,101052.34
2023-04-30T04:20:23.851Z,101048.44
2023-04-30T04:22:51.243Z,101044.53
2023-04-30T04:25:18.421Z,101043.16
2023-04-30T04:27:45.769Z,101050.59
2023-04-30T04:30:13.896Z,101045.84
2023-04-30T04:32:46.899Z,101054.13
2023-04-30T04:35:19.188Z,101059.53
2023-04-30T04:37:46.532Z,101059.00
2023-04-30T04:40:13.833Z,101064.72
2023-04-30T04:42:40.897Z,101058.78
2023-04-30T04:45:08.876Z,101049.44
2023-04-30T04:47:36.951Z,101058.59
2023-04-30T04:50:04.183Z,101057.91
2023-04-30T04:52:31.179Z,101043.66
2023-04-30T04:54:58.404Z,101051.06
2023-04-30T04:57:25.982Z,101053.47
2023-04-30T04:59:53.547Z,101048.75
2023-04-30T05:02:21.481Z,101048.44
2023-04-30T05:04:50.676Z,101047.78
2023-04-30T05:07:18.483Z,101035.59
2023-04-30T05:09:49.558Z,101039.88
2023-04-30T05:12:16.651Z,101050.44
2023-04-30T05:14:44.209Z,101046.03
2023-04-30T05:17:11.311Z,101055.91
2023-04-30T05:19:38.192Z,101048.28
2023-04-30T05:22:05.975Z,101053.75
2023-04-30T05:24:33.113Z,101052.72
2023-04-30T05:27:00.112Z,101047.88
2023-04-30T05:29:26.989Z,101051.09
2023-04-30T05:31:54.813Z,101046.03
2023-04-30T05:34:21.810Z,101049.25
2023-04-30T05:36:48.881Z,101055.22
2023-04-30T05:39:15.932Z,101052.47
2023-04-30T05:41:42.977Z,101048.72
2023-04-30T05:44:09.857Z,101048.06
2023-04-30T05:46:37.238Z,101035.81
2023-04-30T05:49:04.180Z,101045.97
2023-04-30T05:51:31.197Z,101044.75
2023-04-30T05:53:58.129Z,101046.94
2023-04-30T05:56:25.570Z,101040.66
2023-04-30T05:58:53.110Z,101044.53
2023-04-30T06:01:21.356Z,101038.06
2023-04-30T06:03:48.289Z,101038.59
2023-04-30T06:06:15.289Z,101045.94
2023-04-30T06:08:45.159Z,101044.75
2023-04-30T06:11:13.630Z,101053.41
2023-04-30T06:13:41.273Z,101055.47
2023-04-30T06:16:08.867Z,101059.91
2023-04-30T06:18:36.414Z,101056.50
2023-04-30T06:21:03.482Z,101053.13
2023-04-30T06:23:30.445Z,101048.06
2023-04-30T06:25:57.709Z,101042.09
2023-04-30T06:28:24.770Z,101049.75
2023-04-30T06:30:52.300Z,101051.47
2023-04-30T06:33:19.223Z,101056.56
2023-04-30T06:35:46.136Z,101051.13
2023-04-30T06:38:13.928Z,101065.03
2023-04-30T06:40:41.011Z,101062.13
2023-04-30T06:43:08.016Z,101065.53
2023-04-30T06:45:35.646Z,101067.41
2023-04-30T06:48:02.640Z,101062.66
2023-04-30T06:50:29.620Z,101060.25
2023-04-30T06:52:56.572Z,101056.72
2023-04-30T06:55:23.899Z,101062.16
2023-04-30T06:57:54.721Z,101052.44
2023-04-30T07:00:21.691Z,101052.75
2023-04-30T07:02:52.272Z,101050.19
2023-04-30T07:05:19.431Z,101046.09
2023-04-30T07:07:46.845Z,101049.13
2023-04-30T07:10:13.753Z,101049.28
2023-04-30T07:12:40.621Z,101046.88
2023-04-30T07:15:08.336Z,101054.00
2023-04-30T07:17:35.562Z,101040.00
2023-04-30T07:20:02.641Z,101031.66
2023-04-30T07:22:29.683Z,101040.00
2023-04-30T07:24:56.749Z,101036.00
2023-04-30T07:27:24.093Z,101040.19
2023-04-30T07:29:52.062Z,101033.50
2023-04-30T07:32:18.986Z,101032.25
2023-04-30T07:34:45.979Z,101032.56
2023-04-30T07:37:13.696Z,101029.97
2023-04-30T07:39:41.024Z,101042.53
2023-04-30T07:42:07.891Z,101044.00
2023-04-30T07:44:34.760Z,101035.16
2023-04-30T07:47:01.817Z,101042.84
2023-04-30T07:49:29.132Z,101042.66
2023-04-30T07:51:56.670Z,101053.44
2023-04-30T07:54:23.849Z,101045.56
2023-04-30T07:56:50.729Z,101045.66
2023-04-30T07:59:17.948Z,101039.47
2023-04-30T08:01:45.463Z,101046.69
2023-04-30T08:04:12.709Z,101037.88
2023-04-30T08:06:39.711Z,101053.59
2023-04-30T08:09:06.659Z,101055.38
2023-04-30T08:11:33.751Z,101054.31
2023-04-30T08:14:00.788Z,101048.94
2023-04-30T08:16:27.966Z,101056.59
2023-04-30T08:18:54.896Z,101066.81
2023-04-30T08:21:21.973Z,101056.63
2023-04-30T08:23:49.312Z,101062.81
2023-04-30T08:26:16.187Z,101065.34
2023-04-30T08:28:43.169Z,101058.91
2023-04-30T08:31:10.514Z,101063.34
2023-04-30T08:33:37.393Z,101063.34
2023-04-30T08:36:04.673Z,101062.66
2023-04-30T08:38:31.573Z,101056.56
2023-04-30T08:41:11.545Z,101057.59
2023-04-30T08:43:38.992Z,101062.66
2023-04-30T08:46:06.896Z,101062.00
2023-04-30T08:48:34.589Z,101060.63
2023-04-30T08:51:04.941Z,101066.06
2023-04-30T08:53:35.330Z,101066.03
2023-04-30T08:56:03.790Z,101063.16
2023-04-30T08:58:31.034Z,101068.75
2023-04-30T09:01:00.230Z,101068.06
2023-04-30T09:03:28.643Z,101064.28
2023-04-30T09:05:56.494Z,101062.75
2023-04-30T09:08:47.457Z,101058.34
2023-04-30T09:11:30.834Z,101059.16
2023-04-30T09:14:00.858Z,101061.19
2023-04-30T09:16:46.562Z,101062.06
2023-04-30T09:19:30.901Z,101056.75
2023-04-30T09:21:58.592Z,101063.03
2023-04-30T09:24:25.880Z,101058.47
2023-04-30T09:26:54.601Z,101062.06
2023-04-30T09:29:21.559Z,101069.53
2023-04-30T09:31:48.722Z,101062.91
2023-04-30T09:34:16.268Z,101070.72
2023-04-30T09:36:57.072Z,101063.56
2023-04-30T09:39:24.367Z,101058.47
2023-04-30T09:41:52.334Z,101054.38
2023-04-30T09:44:40.632Z,101053.00
2023-04-30T09:47:16.204Z,101042.94
2023-04-30T09:49:46.773Z,101044.38
2023-04-30T09:52:16.399Z,101037.88
2023-04-30T09:54:45.986Z,101039.19
2023-04-30T09:57:15.849Z,101037.06
2023-04-30T09:59:47.424Z,101046.84
2023-04-30T10:02:17.161Z,101046.78
2023-04-30T10:04:45.806Z,101043.91
2023-04-30T10:07:25.220Z,101051.38
2023-04-30T10:10:00.624Z,101047.16
2023-04-30T10:12:48.660Z,101056.41
2023-04-30T10:15:21.016Z,101048.25
2023-04-30T10:17:58.436Z,101053.53
2023-04-30T10:20:27.087Z,101049.41
2023-04-30T10:22:54.725Z,101049.97
2023-04-30T10:25:23.794Z,101047.81
2023-04-30T10:27:52.065Z,101043.19
2023-04-30T10:30:19.138Z,101044.16
2023-04-30T10:33:16.781Z,101035.94
2023-04-30T10:36:04.525Z,101041.84
2023-04-30T10:38:32.996Z,101048.13
2023-04-30T10:41:04.090Z,101050.94
2023-04-30T10:43:31.764Z,101045.53
2023-04-30T10:45:59.271Z,101041.34
2023-04-30T10:48:27.559Z,101038.63
2023-04-30T10:51:01.339Z,101033.63
2023-04-30T10:53:32.226Z,101027.34
2023-04-30T10:56:09.670Z,101029.44
2023-04-30T10:58:41.656Z,101020.41
2023-04-30T11:01:15.832Z,101019.97
2023-04-30T11:04:07.296Z,101019.38
2023-04-30T11:06:52.828Z,101012.25
2023-04-30T11:09:21.841Z,101014.34
2023-04-30T11:12:04.002Z,101016.84
2023-04-30T11:14:34.404Z,101007.59
2023-04-30T11:17:02.670Z,101009.22
2023-04-30T11:19:34.860Z,101005.25
2023-04-30T11:22:04.525Z,101002.03
2023-04-30T11:24:59.519Z,101006.44
2023-04-30T11:27:32.459Z,100997.31
2023-04-30T11:30:00.931Z,101001.91
2023-04-30T11:32:37.588Z,101002.34
2023-04-30T11:35:06.940Z,101002.88
2023-04-30T11:37:38.046Z,101003.91
2023-04-30T11:40:11.334Z,101005.81
2023-04-30T11:42:40.191Z,101001.38
2023-04-30T11:45:13.198Z,101007.03
2023-04-30T11:47:49.426Z,101002.63
2023-04-30T11:50:19.803Z,101006.81
2023-04-30T11:52:53.033Z,101005.06
2023-04-30T11:55:22.577Z,101000.00
2023-04-30T11:57:53.290Z,100997.09
2023-04-30T12:00:27.335Z,100995.44
2023-04-30T12:02:55.605Z,100995.38
2023-04-30T12:05:28.385Z,100986.88
2023-04-30T12:08:06.884Z,100990.25
2023-04-30T12:10:34.172Z,100987.25
2023-04-30T12:13:01.463Z,100987.00
2023-04-30T12:15:29.309Z,100990.97
2023-04-30T12:18:00.751Z,100983.53
2023-04-30T12:20:31.479Z,100989.00
2023-04-30T12:22:58.927Z,100974.41
2023-04-30T12:25:29.617Z,100987.47
2023-04-30T12:27:59.965Z,100979.81
2023-04-30T12:30:27.829Z,100980.00
2023-04-30T12:32:58.851Z,100975.06
2023-04-30T12:35:29.970Z,100973.25
2023-04-30T12:38:08.433Z,100972.66
2023-04-30T12:40:35.931Z,100972.72
2023-04-30T12:43:08.769Z,100970.41
2023-04-30T12:45:48.725Z,100974.53
2023-04-30T12:48:16.519Z,100977.28
2023-04-30T12:51:01.020Z,100968.44
2023-04-30T12:53:28.999Z,100963.41
2023-04-30T12:56:15.495Z,100973.84
2023-04-30T12:58:50.303Z,100968.25
2023-04-30T13:01:23.333Z,100974.09
2023-04-30T13:03:51.679Z,100966.09
2023-04-30T13:06:18.832Z,100964.03
2023-04-30T13:08:58.060Z,100968.44
2023-04-30T13:11:27.349Z,100962.63
2023-04-30T13:13:57.609Z,100962.94
2023-04-30T13:16:25.691Z,100958.59
2023-04-30T13:18:53.619Z,100956.94
2023-04-30T13:21:21.664Z,100962.00
2023-04-30T13:23:52.654Z,100959.34
2023-04-30T13:26:20.792Z,100966.59
2023-04-30T13:28:47.659Z,100958.72
2023-04-30T13:31:14.653Z,100959.94
2023-04-30T13:33:41.855Z,100952.66
2023-04-30T13:36:08.817Z,100956.03
2023-04-30T13:38:35.691Z,100950.47
2023-04-30T13:41:02.731Z,100957.59
2023-04-30T13:43:29.608Z,100952.94
2023-04-30T13:45:56.677Z,100953.41
2023-04-30T13:48:23.843Z,100954.50
2023-04-30T13:50:52.682Z,100954.75
2023-04-30T13:53:20.029Z,100949.50
2023-04-30T13:55:46.993Z,100952.66
2023-04-30T13:58:14.209Z,100950.19
2023-04-30T14:00:41.423Z,100950.56
2023-04-30T14:03:08.683Z,100953.69
2023-04-30T14:05:36.936Z,100947.16
2023-04-30T14:08:05.025Z,100942.19
2023-04-30T14:10:33.144Z,100946.66
2023-04-30T14:13:00.256Z,100934.00
2023-04-30T14:15:30.875Z,100942.13
2023-04-30T14:17:58.147Z,100938.19
2023-04-30T14:20:25.974Z,100935.81
2023-04-30T14:22:53.257Z,100936.94
2023-04-30T14:25:20.779Z,100934.34
2023-04-30T14:27:47.844Z,100933.69
2023-04-30T14:30:17.916Z,100931.41
2023-04-30T14:32:44.889Z,100932.81
2023-04-30T14:35:11.820Z,100924.97
2023-04-30T14:37:38.743Z,100925.06
2023-04-30T14:40:08.485Z,100928.72
2023-04-30T14:42:35.448Z,100922.63
2023-04-30T14:45:02.501Z,100926.38
2023-04-30T14:47:29.638Z,100923.19
2023-04-30T14:49:59.276Z,100922.72
2023-04-30T14:52:26.244Z,100923.66
2023-04-30T14:54:53.265Z,100923.47
2023-04-30T14:57:20.631Z,100915.78
2023-04-30T14:59:47.849Z,100916.09
2023-04-30T15:02:15.270Z,100910.00
2023-04-30T15:04:46.288Z,100914.63
2023-04-30T15:07:13.496Z,100913.31
2023-04-30T15:09:40.565Z,100909.28
2023-04-30T15:12:07.472Z,100895.06
2023-04-30T15:14:34.302Z,100900.06
2023-04-30T15:17:01.386Z,100899.63
2023-04-30T15:19:28.614Z,100885.97
2023-04-30T15:21:55.482Z,100891.13
2023-04-30T15:24:22.592Z,100887.25
2023-04-30T15:26:51.377Z,100877.63
2023-04-30T15:29:18.347Z,100883.38
2023-04-30T15:31:45.322Z,100874.47
2023-04-30T15:34:12.263Z,100864.13
2023-04-30T15:36:39.439Z,100851.16
2023-04-30T15:39:06.319Z,100847.22
2023-04-30T15:41:33.188Z,100852.03
2023-04-30T15:44:00.651Z,100850.13
2023-04-30T15:46:27.662Z,100848.81
2023-04-30T15:48:54.669Z,100838.94
2023-04-30T15:51:21.585Z,100853.59
2023-04-30T15:53:48.800Z,100856.53
2023-04-30T15:56:18.705Z,100859.88
2023-04-30T15:58:45.619Z,100851.59
2023-04-30T16:01:13.073Z,100855.53
2023-04-30T16:03:40.211Z,100859.13
2023-04-30T16:06:07.580Z,100854.44
2023-04-30T16:08:34.733Z,100845.81
2023-04-30T16:11:01.986Z,100849.97
2023-04-30T16:13:29.129Z,100846.03
2023-04-30T16:15:56.312Z,100850.19
2023-04-30T16:18:23.468Z,100842.84
2023-04-30T16:20:50.470Z,100851.69
2023-04-30T16:23:17.557Z,100851.06
2023-04-30T16:25:45.758Z,100840.59
2023-04-30T16:28:12.626Z,100846.03
2023-04-30T16:30:39.723Z,100846.03
2023-04-30T16:33:07.287Z,100845.38
2023-04-30T16:35:34.419Z,100841.13
2023-04-30T16:38:02.803Z,100836.94
2023-04-30T16:40:29.706Z,100844.03
2023-04-30T16:42:56.925Z,100832.03
2023-04-30T16:45:23.836Z,100838.78
2023-04-30T16:47:51.133Z,100825.91
2023-04-30T16:50:19.298Z,100835.13
2023-04-30T16:52:46.243Z,100836.75
2023-04-30T16:55:14.096Z,100824.19
2023-04-30T16:57:41.113Z,100824.38
2023-04-30T17:00:12.025Z,100828.00
2023-04-30T17:02:41.012Z,100818.75
2023-04-30T17:05:11.606Z,100824.00
2023-04-30T17:07:38.784Z,100816.44
2023-04-30T17:10:06.758Z,100818.31
2023-04-30T17:12:33.690Z,100823.56
2023-04-30T17:15:00.652Z,100818.53
2023-04-30T17:17:27.519Z,100820.47
2023-04-30T17:19:54.664Z,100821.09
2023-04-30T17:22:21.744Z,100814.84
2023-04-30T17:24:49.179Z,100809.44
2023-04-30T17:27:16.344Z,100805.81
2023-04-30T17:29:43.461Z,100800.81
2023-04-30T17:32:11.416Z,100802.69
2023-04-30T17:34:38.622Z,100793.31
2023-04-30T17:37:06.018Z,100793.50
2023-04-30T17:39:32.921Z,100794.56
2023-04-30T17:42:00.066Z,100801.31
2023-04-30T17:44:27.084Z,100789.59
2023-04-30T17:46:54.202Z,100790.88
2023-04-30T17:49:21.253Z,100787.94
2023-04-30T17:51:48.642Z,100787.09
2023-04-30T17:54:15.714Z,100777.59
2023-04-30T17:56:42.836Z,100779.47
2023-04-30T17:59:09.789Z,100783.25
2023-04-30T18:01:38.366Z,100786.81
2023-04-30T18:04:08.902Z,100789.03
2023-04-30T18:06:36.753Z,100792.59
2023-04-30T18:09:04.872Z,100791.25
2023-04-30T18:11:32.001Z,100791.63
2023-04-30T18:13:58.928Z,100797.25
2023-04-30T18:16:25.928Z,100793.59
2023-04-30T18:18:52.817Z,100794.94
2023-04-30T18:21:19.785Z,100799.88
2023-04-30T18:23:47.607Z,100799.38
2023-04-30T18:26:14.494Z,100796.50
2023-04-30T18:28:42.718Z,100797.03
2023-04-30T18:31:09.673Z,100794.84
2023-04-30T18:33:36.903Z,100786.63
2023-04-30T18:36:06.117Z,100784.00
2023-04-30T18:38:34.029Z,100783.47
2023-04-30T18:41:02.014Z,100794.09
2023-04-30T18:43:28.972Z,100786.88
2023-04-30T18:45:56.073Z,100783.06
2023-04-30T18:48:23.292Z,100783.47
2023-04-30T18:50:50.934Z,100783.63
2023-04-30T18:53:18.932Z,100785.72
2023-04-30T18:55:46.378Z,100785.72
2023-04-30T18:58:13.598Z,100785.16
2023-04-30T19:00:43.497Z,100780.28
2023-04-30T19:03:10.785Z,100777.38
2023-04-30T19:05:38.277Z,100778.22
2023-04-30T19:08:05.174Z,100772.13
2023-04-30T19:10:34.925Z,100780.84
2023-04-30T19:13:02.350Z,100769.88
2023-04-30T19:15:30.253Z,100768.34
2023-04-30T19:17:58.051Z,100766.22
2023-04-30T19:20:25.087Z,100755.25
2023-04-30T19:22:52.002Z,100762.28
2023-04-30T19:25:18.960Z,100758.53
2023-04-30T19:27:47.313Z,100761.88
2023-04-30T19:30:14.771Z,100765.09
2023-04-30T19:32:42.285Z,100766.84
2023-04-30T19:35:09.540Z,100760.25
2023-04-30T19:37:36.965Z,100758.94
2023-04-30T19:40:10.725Z,100769.75
2023-04-30T19:42:39.317Z,100768.06
2023-04-30T19:45:09.045Z,100767.09
2023-04-30T19:47:36.935Z,100773.59
2023-04-30T19:50:04.078Z,100780.44
2023-04-30T19:52:30.985Z,100777.31
2023-04-30T19:54:58.769Z,100772.81
2023-04-30T19:57:26.350Z,100777.91
2023-04-30T19:59:53.402Z,100773.47
2023-04-30T20:02:20.510Z,100771.97
2023-04-30T20:04:47.496Z,100775.00
2023-04-30T20:07:14.543Z,100784.53
2023-04-30T20:09:41.730Z,100778.06
2023-04-30T20:12:08.729Z,100775.34
2023-04-30T20:14:36.069Z,100780.13
2023-04-30T20:17:03.116Z,100772.28
2023-04-30T20:19:30.420Z,100773.66
2023-04-30T20:21:57.465Z,100770.28
2023-04-30T20:24:24.900Z,100780.63
2023-04-30T20:26:51.780Z,100774.53
2023-04-30T20:29:20.888Z,100774.03
2023-04-30T20:31:48.073Z,100776.75
2023-04-30T20:34:14.996Z,100773.56
2023-04-30T20:36:41.879Z,100776.75
2023-04-30T20:39:09.163Z,100773.56
2023-04-30T20:41:36.458Z,100766.97
2023-04-30T20:44:03.330Z,100778.44
2023-04-30T20:46:32.408Z,100781.31
2023-04-30T20:49:04.245Z,100777.94
2023-04-30T20:51:31.656Z,100771.53
2023-04-30T20:53:58.564Z,100763.75
2023-04-30T20:56:26.180Z,100769.25
2023-04-30T20:58:54.086Z,100773.84
2023-04-30T21:01:21.125Z,100785.94
2023-04-30T21:03:49.492Z,100777.84
2023-04-30T21:06:17.990Z,100778.19
2023-04-30T21:08:44.978Z,100775.84
2023-04-30T21:11:14.340Z,100768.41
2023-04-30T21:13:41.956Z,100765.09
2023-04-30T21:16:09.082Z,100763.38
2023-04-30T21:18:35.992Z,100765.81
2023-04-30T21:21:05.170Z,100763.09
2023-04-30T21:23:32.944Z,100767.66
2023-04-30T21:25:59.891Z,100763.44
2023-04-30T21:28:27.054Z,100767.19
2023-04-30T21:30:54.104Z,100763.13
2023-04-30T21:33:21.216Z,100765.00
2023-04-30T21:35:48.103Z,100763.13
2023-04-30T21:38:15.005Z,100759.09
2023-04-30T21:40:43.541Z,100758.25
2023-04-30T21:43:10.424Z,100746.16
2023-04-30T21:45:37.331Z,100743.44
2023-04-30T21:48:05.858Z,100753.13
2023-04-30T21:50:34.040Z,100748.72
2023-04-30T21:53:03.471Z,100749.19
2023-04-30T21:55:30.842Z,100753.13
2023-04-30T21:57:57.922Z,100754.94
2023-04-30T22:00:25.536Z,100753.41
2023-04-30T22:02:52.519Z,100753.91
2023-04-30T22:05:22.667Z,100752.91
2023-04-30T22:07:49.690Z,100757.00
2023-04-30T22:10:16.594Z,100752.72
2023-04-30T22:12:47.183Z,100756.28
2023-04-30T22:15:15.451Z,100749.78
2023-04-30T22:17:42.533Z,100756.09
2023-04-30T22:20:10.279Z,100757.94
2023-04-30T22:22:37.254Z,100755.06
2023-04-30T22:25:04.986Z,100754.41
2023-04-30T22:27:32.326Z,100749.13
2023-04-30T22:29:59.328Z,100753.41
2023-04-30T22:32:26.538Z,100751.19
2023-04-30T22:34:53.598Z,100754.28
2023-04-30T22:37:20.528Z,100745.44
2023-04-30T22:39:48.622Z,100743.41
2023-04-30T22:42:17.099Z,100743.94
2023-04-30T22:44:45.609Z,100740.00
2023-04-30T22:47:12.770Z,100737.66
2023-04-30T22:49:39.848Z,100738.69
2023-04-30T22:52:07.544Z,100741.94
2023-04-30T22:54:35.906Z,100742.31
2023-04-30T22:57:03.300Z,100750.44
2023-04-30T22:59:30.250Z,100743.84
2023-04-30T23:01:57.451Z,100753.34
2023-04-30T23:04:26.173Z,100746.91
2023-04-30T23:06:53.660Z,100752.69
2023-04-30T23:09:20.523Z,100749.44
2023-04-30T23:11:48.501Z,100752.16
2023-04-30T23:14:15.513Z,100747.94
2023-04-30T23:16:43.140Z,100748.28
2023-04-30T23:19:10.577Z,100747.44
2023-04-30T23:21:38.035Z,100748.00
2023-04-30T23:24:05.326Z,100746.94
2023-04-30T23:26:32.239Z,100751.41
2023-04-30T23:28:59.629Z,100743.97
2023-04-30T23:31:27.449Z,100738.72
2023-04-30T23:33:54.520Z,100737.75
2023-04-30T23:36:21.442Z,100734.88
2023-04-30T23:38:48.332Z,100739.31
2023-04-30T23:41:15.757Z,100740.03
2023-04-30T23:43:42.635Z,100740.06
2023-04-30T23:46:09.841Z,100744.50
2023-04-30T23:48:36.965Z,100731.44
2023-04-30T23:51:06.031Z,100732.50
2023-04-30T23:53:32.904Z,100716.91
2023-04-30T23:56:00.518Z,100731.00
2023-04-30T23:58:31.840Z,100722.91
